Time;durP1;ratioP1;P1;durP2;ratioP2;P2;SDS_P1;SDS_P2;PMS_P1;PMS_P2;Temp;Humidity;BMP_temperature;BMP_pressure;BME280_temperature;BME280_humidity;BME280_pressure;Samples;Min_cycle;Max_cycle;Signal;HPM_P1;HPM_P2
2023/06/25 00:00:40;;;;;;;5.38;4.07;;;;;;;27.06;53.39;100345.22;5011527;28;20046;-63
2023/06/25 00:03:08;;;;;;;6.00;4.03;;;;;;;27.06;52.99;100347.09;5011491;28;20483;-62
2023/06/25 00:05:36;;;;;;;5.00;3.53;;;;;;;27.06;53.05;100355.31;5011506;28;20108;-62
2023/06/25 00:08:06;;;;;;;5.30;3.50;;;;;;;27.04;53.42;100341.84;5011427;28;20092;-62
2023/06/25 00:10:34;;;;;;;5.05;3.63;;;;;;;27.05;53.39;100342.69;5011350;28;20046;-62
2023/06/25 00:13:03;;;;;;;5.28;3.50;;;;;;;27.04;53.29;100343.72;5011697;28;20434;-62
2023/06/25 00:15:31;;;;;;;6.65;3.55;;;;;;;27.04;53.09;100340.97;5011397;28;20453;-62
2023/06/25 00:17:59;;;;;;;4.60;3.50;;;;;;;27.03;53.60;100350.25;5011510;28;20050;-62
2023/06/25 00:20:28;;;;;;;4.63;3.47;;;;;;;27.03;53.30;100350.25;5011400;28;20145;-62
2023/06/25 00:22:57;;;;;;;4.93;3.47;;;;;;;27.02;53.56;100348.50;5011179;28;20054;-62
2023/06/25 00:25:36;;;;;;;6.35;3.78;;;;;;;27.00;54.09;100350.59;5011222;28;20526;-63
2023/06/25 00:28:08;;;;;;;5.05;3.30;;;;;;;26.99;54.20;100348.91;5011335;28;20104;-63
2023/06/25 00:30:37;;;;;;;;;;;;;;;26.96;53.59;100358.34;5011746;28;20096;-61
2023/06/25 00:33:05;;;;;;;5.25;3.53;;;;;;;26.97;53.66;100350.97;5011248;28;20267;-62
2023/06/25 00:35:59;;;;;;;4.65;3.35;;;;;;;26.96;53.46;100352.88;5011184;28;20046;-62
2023/06/25 00:38:27;;;;;;;4.72;3.20;;;;;;;26.97;54.09;100356.47;5011229;28;20054;-61
2023/06/25 00:40:57;;;;;;;5.47;3.15;;;;;;;26.96;53.51;100363.81;5011825;28;20407;-62
2023/06/25 00:43:25;;;;;;;5.22;3.30;;;;;;;26.95;53.63;100361.28;4997671;28;20137;-62
2023/06/25 00:45:53;;;;;;;4.60;3.05;;;;;;;26.95;54.07;100358.56;5014889;28;20493;-61
2023/06/25 00:48:22;;;;;;;4.07;2.70;;;;;;;26.93;53.62;100364.22;5015007;28;20046;-61
2023/06/25 00:50:51;;;;;;;4.53;3.10;;;;;;;26.95;53.73;100362.13;5014592;28;20146;-62
2023/06/25 00:53:21;;;;;;;4.20;2.92;;;;;;;26.94;54.04;100367.81;5014522;28;20054;-61
2023/06/25 00:55:50;;;;;;;4.53;3.08;;;;;;;26.95;54.22;100369.50;5014678;28;20121;-61
2023/06/25 00:58:21;;;;;;;4.43;3.08;;;;;;;26.95;54.13;100364.03;5014508;28;20487;-61
2023/06/25 01:00:53;;;;;;;4.65;2.90;;;;;;;26.95;54.00;100367.59;5014397;28;20414;-61
2023/06/25 01:03:27;;;;;;;4.40;2.85;;;;;;;26.93;53.87;100375.19;5014851;28;20427;-61
2023/06/25 01:06:02;;;;;;;4.05;2.55;;;;;;;26.93;54.03;100361.50;5014505;28;20562;-63
2023/06/25 01:08:40;;;;;;;4.22;2.80;;;;;;;26.93;53.97;100366.13;5014461;28;20053;-61
2023/06/25 01:11:10;;;;;;;4.53;2.83;;;;;;;26.92;54.36;100361.66;5014495;28;20050;-61
2023/06/25 01:13:40;;;;;;;3.88;2.70;;;;;;;26.91;54.38;100351.75;5014518;28;20168;-60
2023/06/25 01:16:08;;;;;;;4.32;2.63;;;;;;;26.92;53.99;100347.97;5014504;28;20517;-61
2023/06/25 01:18:39;;;;;;;4.00;2.72;;;;;;;26.91;54.36;100354.50;5014413;28;20042;-61
2023/06/25 01:21:23;;;;;;;3.83;2.42;;;;;;;26.90;54.05;100350.06;5014251;28;20189;-62
2023/06/25 01:23:53;;;;;;;3.80;2.60;;;;;;;26.91;54.25;100349.03;5014175;28;20046;-61
2023/06/25 01:26:21;;;;;;;4.15;2.53;;;;;;;26.90;54.53;100350.06;5014333;28;20107;-61
2023/06/25 01:28:49;;;;;;;5.32;2.72;;;;;;;26.90;54.54;100336.38;5014279;28;20049;-61
2023/06/25 01:31:17;;;;;;;4.07;2.38;;;;;;;26.90;54.53;100330.91;5014047;28;20072;-61
2023/06/25 01:33:46;;;;;;;3.85;2.50;;;;;;;26.90;53.99;100333.66;5014216;28;20482;-61
2023/06/25 01:36:14;;;;;;;4.10;2.40;;;;;;;26.89;54.66;100335.53;5014022;28;20089;-61
2023/06/25 01:38:42;;;;;;;3.83;2.35;;;;;;;26.89;54.64;100337.44;5014406;28;20046;-62
2023/06/25 01:41:11;;;;;;;3.42;2.47;;;;;;;26.89;54.06;100337.44;5014085;28;20052;-61
2023/06/25 01:43:40;;;;;;;4.53;2.78;;;;;;;26.89;54.23;100338.28;5013898;28;20498;-62
2023/06/25 01:46:08;;;;;;;3.72;2.35;;;;;;;26.89;54.13;100337.44;5014009;28;20124;-62
2023/06/25 01:48:36;;;;;;;3.55;2.40;;;;;;;26.89;54.21;100337.44;5013712;28;20081;-62
2023/06/25 01:51:04;;;;;;;3.38;2.28;;;;;;;26.88;54.21;100335.75;5014057;28;20399;-61
2023/06/25 01:53:32;;;;;;;4.20;2.53;;;;;;;26.87;54.22;100334.91;5013413;28;21100;-62
2023/06/25 01:56:00;;;;;;;4.00;2.47;;;;;;;26.88;54.32;100330.28;5013908;28;20050;-61
2023/06/25 01:58:30;;;;;;;4.00;2.58;;;;;;;26.87;54.25;100331.31;5013613;28;20252;-62
2023/06/25 02:00:58;;;;;;;4.18;2.47;;;;;;;26.82;54.79;100319.03;5013563;28;20053;-61
2023/06/25 02:03:26;;;;;;;3.42;2.55;;;;;;;26.82;54.93;100320.94;5013406;28;20124;-61
2023/06/25 02:05:54;;;;;;;4.82;2.60;;;;;;;26.80;54.44;100318.41;5013430;28;20506;-61
2023/06/25 02:08:22;;;;;;;4.22;2.20;;;;;;;26.81;54.88;100321.97;5013546;28;20069;-61
2023/06/25 02:10:51;;;;;;;4.82;2.58;;;;;;;26.81;54.66;100319.25;5013348;28;20093;-62
2023/06/25 02:13:19;;;;;;;3.88;2.50;;;;;;;26.82;54.54;100332.72;5013422;28;20053;-62
2023/06/25 02:15:48;;;;;;;3.13;2.10;;;;;;;26.81;54.46;100327.47;5013089;28;20056;-61
2023/06/25 02:18:16;;;;;;;4.30;2.47;;;;;;;26.80;54.72;100334.81;5013375;28;20060;-61
2023/06/25 02:20:45;;;;;;;3.55;2.30;;;;;;;26.80;54.59;100331.25;5013440;28;20057;-62
2023/06/25 02:23:13;;;;;;;4.57;2.45;;;;;;;26.80;54.92;100332.09;5013323;28;20064;-61
2023/06/25 02:25:42;;;;;;;3.83;2.20;;;;;;;26.82;55.06;100343.69;5013375;28;20045;-62
2023/06/25 02:28:10;;;;;;;3.70;2.40;;;;;;;26.81;54.55;100333.78;5012915;28;20057;-61
2023/06/25 02:30:38;;;;;;;4.68;2.30;;;;;;;26.81;54.99;100328.31;5012807;28;20053;-61
2023/06/25 02:33:10;;;;;;;3.40;2.30;;;;;;;26.81;55.05;100339.25;5013146;28;20052;-61
2023/06/25 02:35:38;;;;;;;4.60;2.40;;;;;;;26.80;54.78;100334.81;5013021;28;20054;-61
2023/06/25 02:38:06;;;;;;;5.25;2.53;;;;;;;26.81;54.68;100336.50;5012952;28;20100;-61
2023/06/25 02:40:38;;;;;;;3.53;2.20;;;;;;;26.80;55.07;100333.97;5012756;28;20050;-62
2023/06/25 02:43:06;;;;;;;4.10;2.38;;;;;;;26.80;54.74;100328.50;5012723;28;20222;-61
2023/06/25 02:45:34;;;;;;;3.20;2.10;;;;;;;26.80;55.10;100328.50;5013090;28;20077;-61
2023/06/25 02:48:02;;;;;;;4.55;2.08;;;;;;;26.80;55.06;100332.09;5012778;28;20049;-61
2023/06/25 02:50:32;;;;;;;3.00;2.10;;;;;;;26.80;55.12;100334.81;5012665;28;20057;-60
2023/06/25 02:53:00;;;;;;;3.95;2.40;;;;;;;26.81;54.98;100327.47;5012432;28;20058;-61
2023/06/25 02:55:28;;;;;;;3.33;2.10;;;;;;;26.79;55.05;100333.13;5012442;28;20379;-61
2023/06/25 02:57:57;;;;;;;4.95;2.90;;;;;;;26.80;54.97;100339.44;5012741;28;20053;-61
2023/06/25 03:00:25;;;;;;;3.55;2.20;;;;;;;26.79;55.04;100341.34;5012316;28;20046;-61
2023/06/25 03:02:53;;;;;;;3.53;2.22;;;;;;;26.79;55.01;100344.06;5012450;28;20419;-61
2023/06/25 03:05:21;;;;;;;4.53;2.60;;;;;;;26.78;55.25;100342.38;5011871;28;20046;-61
2023/06/25 03:07:52;;;;;;;3.42;2.20;;;;;;;26.78;54.86;100345.13;5012336;28;20050;-61
2023/06/25 03:10:22;;;;;;;3.67;2.13;;;;;;;26.78;54.92;100347.84;5012238;28;20140;-60
2023/06/25 03:12:50;;;;;;;3.47;2.03;;;;;;;26.79;54.78;100351.44;5012473;28;20136;-60
2023/06/25 03:15:19;;;;;;;4.47;2.47;;;;;;;26.78;55.11;100345.13;5012363;28;20128;-60
2023/06/25 03:17:47;;;;;;;4.30;2.40;;;;;;;26.78;54.85;100344.28;5012281;28;20176;-62
2023/06/25 03:20:15;;;;;;;3.10;2.13;;;;;;;26.78;55.32;100352.47;5012197;28;20096;-61
2023/06/25 03:22:43;;;;;;;4.05;2.25;;;;;;;26.77;55.43;100346.16;5012056;28;20052;-61
2023/06/25 03:25:13;;;;;;;3.30;2.20;;;;;;;26.76;55.01;100349.94;5012050;28;20535;-61
2023/06/25 03:27:41;;;;;;;3.90;2.30;;;;;;;26.77;54.92;100353.53;5011934;28;20081;-62
2023/06/25 03:30:10;;;;;;;3.17;2.05;;;;;;;26.77;55.39;100348.06;5012200;28;20054;-61
2023/06/25 03:32:38;;;;;;;3.53;2.10;;;;;;;26.75;55.03;100347.41;5012194;28;20411;-61
2023/06/25 03:35:07;;;;;;;3.38;2.33;;;;;;;26.72;55.47;100348.63;5012097;28;20084;-62
2023/06/25 03:37:35;;;;;;;3.97;2.33;;;;;;;26.72;55.53;100348.63;5011895;28;20049;-62
2023/06/25 03:40:04;;;;;;;3.40;2.28;;;;;;;26.71;55.53;100346.94;5012052;28;20132;-61
2023/06/25 03:42:33;;;;;;;3.13;2.20;;;;;;;26.69;55.53;100348.19;5011946;28;20053;-62
2023/06/25 03:45:01;;;;;;;5.70;2.40;;;;;;;26.72;55.03;100347.78;5011804;28;20069;-62
2023/06/25 03:47:30;;;;;;;3.22;2.10;;;;;;;26.71;55.57;100352.41;5011676;28;20077;-62
2023/06/25 03:49:58;;;;;;;3.40;2.22;;;;;;;26.71;55.85;100349.66;5011641;28;20376;-60
2023/06/25 03:52:26;;;;;;;3.88;2.10;;;;;;;26.66;55.61;100352.16;5011623;28;20141;-62
2023/06/25 03:54:54;;;;;;;5.25;2.45;;;;;;;26.69;55.47;100346.28;5011832;28;20421;-61
2023/06/25 03:57:23;;;;;;;3.60;2.40;;;;;;;26.68;55.72;100357.44;5011688;28;20483;-61
2023/06/25 03:59:52;;;;;;;3.70;2.45;;;;;;;26.65;55.47;100349.63;5011714;28;20054;-61
2023/06/25 04:02:20;;;;;;;3.00;2.08;;;;;;;26.65;55.94;100353.22;5011507;28;20092;-61
2023/06/25 04:04:48;;;;;;;4.30;2.15;;;;;;;26.65;55.31;100353.22;5011818;28;20101;-61
2023/06/25 04:07:16;;;;;;;3.72;2.30;;;;;;;26.66;55.36;100354.91;5011655;28;20052;-61
2023/06/25 04:09:45;;;;;;;4.55;2.42;;;;;;;26.65;55.88;100358.69;5011524;28;20054;-61
2023/06/25 04:12:13;;;;;;;3.95;2.15;;;;;;;26.66;55.71;100348.56;5011636;28;20046;-62
2023/06/25 04:14:41;;;;;;;3.92;2.45;;;;;;;26.66;55.75;100351.31;5011514;28;20077;-61
2023/06/25 04:17:10;;;;;;;4.35;2.25;;;;;;;26.65;55.94;100350.47;5013944;28;20517;-62
2023/06/25 04:19:39;;;;;;;3.30;2.10;;;;;;;26.64;55.96;100343.31;5015600;28;20140;-61
2023/06/25 04:22:07;;;;;;;3.90;2.50;;;;;;;26.66;55.84;100349.44;5015677;28;20100;-61
2023/06/25 04:24:35;;;;;;;3.75;2.38;;;;;;;26.66;55.97;100356.78;5015556;28;20049;-61
2023/06/25 04:27:04;;;;;;;4.10;2.58;;;;;;;26.63;55.58;100352.53;5015459;28;20133;-61
2023/06/25 04:29:32;;;;;;;3.33;2.20;;;;;;;26.63;55.84;100354.41;5015156;28;20065;-61
2023/06/25 04:32:00;;;;;;;3.55;2.42;;;;;;;26.63;55.52;100355.25;5015403;28;20100;-62
2023/06/25 04:34:30;;;;;;;3.58;2.17;;;;;;;26.65;55.41;100357.84;5015396;28;20058;-61
2023/06/25 04:36:58;;;;;;;3.75;2.35;;;;;;;26.63;55.98;100349.78;5015098;28;20821;-61
2023/06/25 04:39:26;;;;;;;3.30;2.30;;;;;;;26.61;56.07;100351.03;5015099;28;20399;-61
2023/06/25 04:41:54;;;;;;;4.00;2.40;;;;;;;26.62;55.98;100347.25;5015090;28;20061;-61
2023/06/25 04:44:22;;;;;;;4.78;2.63;;;;;;;26.60;55.60;100350.19;5014874;28;20049;-61
2023/06/25 04:46:54;;;;;;;3.80;2.50;;;;;;;26.59;55.52;100348.50;5015142;28;20065;-62
2023/06/25 04:49:23;;;;;;;4.40;2.55;;;;;;;26.59;55.93;100345.75;5014929;28;20112;-61
2023/06/25 04:51:52;;;;;;;3.72;2.40;;;;;;;26.60;55.93;100355.66;5014717;28;20519;-60
2023/06/25 04:54:20;;;;;;;4.13;2.40;;;;;;;26.61;55.52;100348.31;5014859;28;20049;-61
2023/06/25 04:56:48;;;;;;;3.60;2.30;;;;;;;26.61;55.95;100356.50;5014662;28;20096;-62
2023/06/25 04:59:16;;;;;;;5.35;2.78;;;;;;;26.61;55.39;100351.03;5014954;28;20058;-62
2023/06/25 05:01:45;;;;;;;4.18;2.20;;;;;;;26.61;55.43;100349.16;5014728;28;20045;-62
2023/06/25 05:04:13;;;;;;;3.60;2.30;;;;;;;26.61;55.40;100345.56;5014632;28;20574;-60
2023/06/25 05:06:41;;;;;;;3.88;2.58;;;;;;;26.61;55.79;100351.88;5014598;28;20418;-62
2023/06/25 05:09:10;;;;;;;4.57;2.42;;;;;;;26.61;55.67;100354.63;5014465;28;20119;-62
2023/06/25 05:11:39;;;;;;;4.78;2.50;;;;;;;26.60;55.64;100358.41;5014367;28;20053;-62
2023/06/25 05:14:07;;;;;;;4.22;2.47;;;;;;;26.56;55.48;100359.84;5014718;28;20872;-62
2023/06/25 05:16:35;;;;;;;3.85;2.47;;;;;;;26.56;55.80;100359.84;5014554;28;20065;-62
2023/06/25 05:19:04;;;;;;;4.25;2.50;;;;;;;26.56;55.63;100365.31;5014440;28;20116;-62
2023/06/25 05:21:32;;;;;;;3.85;2.40;;;;;;;26.56;55.25;100361.72;5014350;28;20536;-62
2023/06/25 05:24:03;;;;;;;3.33;2.20;;;;;;;26.55;55.54;100360.88;5014127;28;20042;-61
2023/06/25 05:26:33;;;;;;;4.25;2.40;;;;;;;26.56;55.77;100359.84;5013869;28;20132;-61
2023/06/25 05:29:01;;;;;;;4.25;2.58;;;;;;;26.56;55.44;100365.31;5014072;28;20046;-63
2023/06/25 05:31:30;;;;;;;4.20;2.30;;;;;;;26.57;55.25;100366.16;5014274;28;20069;-62
2023/06/25 05:33:58;;;;;;;4.00;2.45;;;;;;;26.56;55.34;100365.31;5014043;28;20049;-62
2023/06/25 05:36:28;;;;;;;3.30;2.25;;;;;;;26.57;55.34;100361.53;5013974;28;20050;-62
2023/06/25 05:38:56;;;;;;;3.95;2.33;;;;;;;26.59;54.99;100367.66;5014146;28;20065;-62
2023/06/25 05:41:25;;;;;;;3.85;2.50;;;;;;;26.56;55.38;100359.84;5014032;28;20078;-62
2023/06/25 05:43:54;;;;;;;3.60;2.38;;;;;;;26.56;54.84;100370.78;5013781;28;20046;-62
2023/06/25 05:46:22;;;;;;;4.10;2.50;;;;;;;26.55;55.30;100369.09;5014191;28;20058;-63
2023/06/25 05:48:50;;;;;;;4.63;2.50;;;;;;;26.56;54.97;100364.47;5014052;28;20042;-60
2023/06/25 05:51:19;;;;;;;3.50;2.10;;;;;;;26.55;54.91;100374.56;5013897;28;20491;-62
2023/06/25 05:53:47;;;;;;;4.32;2.65;;;;;;;26.56;55.16;100376.25;5014159;28;20049;-61
2023/06/25 05:56:15;;;;;;;3.47;2.22;;;;;;;26.55;54.84;100374.56;5015070;28;20050;-62
2023/06/25 05:58:44;;;;;;;3.28;2.20;;;;;;;26.55;55.01;100374.56;5014451;28;20073;-62
2023/06/25 06:01:14;;;;;;;3.65;2.40;;;;;;;26.52;55.17;100373.03;5013592;28;20077;-62
2023/06/25 06:03:42;;;;;;;4.10;2.35;;;;;;;26.52;54.86;100373.03;5013392;28;20398;-61
2023/06/25 06:06:10;;;;;;;3.50;2.25;;;;;;;26.52;54.76;100369.44;5013823;28;20053;-62
2023/06/25 06:08:38;;;;;;;3.55;2.30;;;;;;;26.53;54.68;100379.34;5013428;28;20478;-61
2023/06/25 06:11:06;;;;;;;3.20;2.17;;;;;;;26.53;54.82;100371.16;5013643;28;20054;-61
2023/06/25 06:13:34;;;;;;;3.30;2.20;;;;;;;26.52;54.89;100375.78;5013388;28;20112;-60
2023/06/25 06:16:02;;;;;;;3.80;2.40;;;;;;;26.52;55.11;100369.44;5013308;28;20042;-61
2023/06/25 06:18:32;;;;;;;5.25;2.22;;;;;;;26.51;54.72;100374.06;5013236;28;20508;-62
2023/06/25 06:21:00;;;;;;;3.90;2.25;;;;;;;26.52;54.65;100380.38;5013455;28;20053;-62
2023/06/25 06:23:28;;;;;;;3.38;2.10;;;;;;;26.52;54.57;100380.38;5013107;28;20451;-62
2023/06/25 06:25:56;;;;;;;3.47;2.17;;;;;;;26.50;55.05;100377.84;5013186;28;20054;-61
2023/06/25 06:28:24;;;;;;;3.83;2.30;;;;;;;26.50;54.61;100382.47;5021375;28;20442;-63
2023/06/25 06:30:52;;;;;;;3.70;2.15;;;;;;;26.50;54.81;100382.47;5032441;28;20049;-62
2023/06/25 06:33:20;;;;;;;3.60;2.35;;;;;;;26.52;54.80;100383.13;5032818;28;20077;-62
2023/06/25 06:35:50;;;;;;;4.35;2.20;;;;;;;26.49;54.78;100384.38;5032867;28;20072;-60
2023/06/25 06:38:18;;;;;;;3.13;2.00;;;;;;;26.49;54.88;100386.25;5032092;28;20099;-61
2023/06/25 06:40:46;;;;;;;3.83;2.25;;;;;;;26.48;54.87;100390.88;5032364;28;20049;-61
2023/06/25 06:43:14;;;;;;;3.22;2.17;;;;;;;26.49;54.41;100397.19;5032488;28;20121;-61
2023/06/25 06:45:42;;;;;;;3.15;2.03;;;;;;;26.48;54.44;100390.88;5032793;28;20049;-60
2023/06/25 06:48:11;;;;;;;3.63;2.00;;;;;;;26.47;54.62;100393.81;5032725;28;20103;-60
2023/06/25 06:50:39;;;;;;;3.75;2.25;;;;;;;26.48;54.71;100387.31;5032526;28;20050;-61
2023/06/25 06:53:08;;;;;;;4.68;2.58;;;;;;;26.48;54.55;100384.56;5032454;28;20056;-61
2023/06/25 06:55:36;;;;;;;5.30;2.40;;;;;;;26.48;54.52;100381.84;5032287;28;20053;-60
2023/06/25 06:58:05;;;;;;;4.57;2.30;;;;;;;26.47;54.26;100374.66;5032503;28;20049;-61
2023/06/25 07:00:33;;;;;;;4.35;2.05;;;;;;;26.48;54.60;100379.09;5032121;28;20406;-62
2023/06/25 07:03:01;;;;;;;3.35;2.10;;;;;;;26.52;54.63;100380.38;5032329;28;20068;-61
2023/06/25 07:05:29;;;;;;;3.72;2.10;;;;;;;26.51;54.20;100378.69;5032072;28;20084;-62
2023/06/25 07:07:57;;;;;;;4.18;2.10;;;;;;;26.52;54.52;100381.25;5032047;28;20049;-61
2023/06/25 07:10:27;;;;;;;3.08;2.10;;;;;;;26.53;54.36;100382.09;5031818;28;20045;-62
2023/06/25 07:12:55;;;;;;;5.40;2.22;;;;;;;26.56;54.17;100376.25;5031965;28;20053;-61
2023/06/25 07:15:23;;;;;;;3.50;2.60;;;;;;;26.58;54.27;100373.31;5031986;28;20053;-62
2023/06/25 07:17:51;;;;;;;3.53;2.13;;;;;;;26.58;54.07;100374.16;5031998;28;20056;-62
2023/06/25 07:20:19;;;;;;;3.55;2.47;;;;;;;26.58;54.41;100368.69;5031953;28;20057;-61
2023/06/25 07:22:48;;;;;;;4.18;2.28;;;;;;;26.61;54.40;100367.44;5031728;28;20132;-61
2023/06/25 07:25:16;;;;;;;3.30;2.10;;;;;;;26.65;54.24;100368.78;5031686;28;20053;-63
2023/06/25 07:27:45;;;;;;;3.85;2.28;;;;;;;26.61;54.56;100371.03;5020340;28;20054;-61
2023/06/25 07:30:14;;;;;;;3.35;2.15;;;;;;;26.62;54.52;100374.59;5011785;28;20050;-59
2023/06/25 07:32:42;;;;;;;3.42;2.10;;;;;;;26.62;54.18;100370.00;5012346;28;20049;-64
2023/06/25 07:35:10;;;;;;;3.40;2.13;;;;;;;26.63;54.15;100371.69;5013253;28;20056;-62
2023/06/25 07:37:38;;;;;;;5.40;2.42;;;;;;;26.65;54.70;100380.56;5030995;28;20114;-61
2023/06/25 07:40:08;;;;;;;4.40;2.40;;;;;;;26.66;54.46;100376.78;5030970;28;20140;-62
2023/06/25 07:42:36;;;;;;;4.55;2.25;;;;;;;26.67;54.01;100375.75;5017773;28;20045;-61
2023/06/25 07:45:07;;;;;;;3.08;2.00;;;;;;;26.68;54.66;100374.69;5011266;28;20152;-62
2023/06/25 07:47:37;;;;;;;3.10;2.22;;;;;;;26.69;54.26;100370.91;5011371;28;20056;-62
2023/06/25 07:50:07;;;;;;;3.35;2.20;;;;;;;26.70;54.65;100369.88;5011021;28;20045;-61
2023/06/25 07:52:35;;;;;;;4.40;2.40;;;;;;;26.72;54.08;100369.66;5011008;28;20059;-60
2023/06/25 07:55:03;;;;;;;3.80;2.35;;;;;;;26.75;53.89;100378.34;5011329;28;20057;-61
2023/06/25 07:57:31;;;;;;;5.28;2.50;;;;;;;26.76;54.01;100373.72;5011254;28;20128;-61
2023/06/25 08:00:00;;;;;;;4.55;2.30;;;;;;;26.75;53.65;100375.63;5011173;28;20077;-63
2023/06/25 08:02:29;;;;;;;3.03;2.17;;;;;;;26.76;53.82;100371.84;5010996;28;20057;-61
2023/06/25 08:04:57;;;;;;;3.55;2.22;;;;;;;26.77;53.32;100373.53;5011437;28;20050;-61
2023/06/25 08:07:26;;;;;;;4.13;2.33;;;;;;;26.77;53.21;100379.00;5011231;28;20081;-61
2023/06/25 08:09:54;;;;;;;3.55;1.90;;;;;;;26.78;53.38;100372.47;5010856;28;20104;-61
2023/06/25 08:12:27;;;;;;;5.00;2.25;;;;;;;26.78;53.12;100377.13;5023754;28;20050;-61
2023/06/25 08:14:55;;;;;;;4.75;2.13;;;;;;;26.79;52.85;100378.81;5031029;28;20056;-61
2023/06/25 08:17:24;;;;;;;3.45;2.00;;;;;;;26.79;52.76;100376.06;5013231;28;20103;-62
2023/06/25 08:19:53;;;;;;;3.58;2.00;;;;;;;26.78;52.31;100368.91;5030662;28;20107;-62
2023/06/25 08:22:24;;;;;;;3.90;2.30;;;;;;;26.79;52.42;100371.44;5028850;28;20151;-61
2023/06/25 08:24:54;;;;;;;3.25;1.85;;;;;;;26.80;52.36;100364.06;5030452;28;20458;-61
2023/06/25 08:27:22;;;;;;;3.47;2.20;;;;;;;26.81;52.17;100371.25;5030643;28;20107;-61
2023/06/25 08:29:50;;;;;;;3.20;2.10;;;;;;;26.82;52.11;100368.31;5030635;28;20150;-61
2023/06/25 08:32:18;;;;;;;4.70;2.20;;;;;;;26.84;52.54;100367.28;5030579;28;20140;-62
2023/06/25 08:34:47;;;;;;;3.28;1.95;;;;;;;26.82;52.43;100365.56;5030543;28;20470;-62
2023/06/25 08:37:16;;;;;;;3.25;2.30;;;;;;;26.85;52.09;100368.97;5030976;28;20129;-62
2023/06/25 08:39:45;;;;;;;3.53;2.15;;;;;;;26.85;51.97;100366.25;5022234;28;20045;-61
2023/06/25 08:42:14;;;;;;;3.33;2.10;;;;;;;26.85;51.95;100364.34;5010570;28;20053;-60
2023/06/25 08:44:42;;;;;;;4.78;1.95;;;;;;;26.88;52.19;100368.56;4993104;28;20042;-62
2023/06/25 08:47:12;;;;;;;3.30;2.10;;;;;;;26.88;51.73;100368.56;5011061;28;20073;-63
2023/06/25 08:49:43;;;;;;;3.58;2.20;;;;;;;26.90;52.08;100363.75;5011031;28;20046;-61
2023/06/25 08:52:12;;;;;;;3.42;2.08;;;;;;;26.91;52.02;100357.22;5010355;28;20089;-60
2023/06/25 08:54:44;;;;;;;2.83;1.90;;;;;;;26.93;51.45;100360.66;5024819;28;20456;-60
2023/06/25 08:57:13;;;;;;;4.20;2.00;;;;;;;26.95;51.93;100361.28;5029872;28;20389;-60
2023/06/25 08:59:41;;;;;;;3.63;1.98;;;;;;;26.98;51.97;100353.53;5030488;28;20139;-62
2023/06/25 09:02:10;;;;;;;4.22;2.20;;;;;;;26.99;51.98;100354.38;5011739;28;20063;-60
2023/06/25 09:04:38;;;;;;;3.00;1.90;;;;;;;27.01;51.70;100357.75;5014184;28;20504;-61
2023/06/25 09:07:07;;;;;;;6.30;1.98;;;;;;;27.03;51.45;100352.97;5014264;28;20502;-61
2023/06/25 09:09:35;;;;;;;4.95;2.25;;;;;;;27.05;51.62;100353.63;5014372;28;20053;-61
2023/06/25 09:12:06;;;;;;;4.45;2.22;;;;;;;27.07;51.85;100346.06;5013862;28;20056;-61
2023/06/25 09:14:34;;;;;;;3.30;2.08;;;;;;;27.07;51.28;100346.91;5014017;28;20057;-61
2023/06/25 09:17:03;;;;;;;3.20;2.08;;;;;;;27.10;51.73;100342.91;5014182;28;20049;-59
2023/06/25 09:19:32;;;;;;;3.80;2.33;;;;;;;27.12;51.17;100343.59;5014016;28;20112;-61
2023/06/25 09:22:00;;;;;;;4.88;2.22;;;;;;;27.15;51.41;100340.44;5014517;28;20056;-60
2023/06/25 09:24:28;;;;;;;2.97;2.00;;;;;;;27.16;50.92;100336.66;5013545;28;20042;-61
2023/06/25 09:26:56;;;;;;;4.20;1.80;;;;;;;27.18;50.80;100339.19;5013964;28;20130;-61
2023/06/25 09:29:26;;;;;;;3.92;2.03;;;;;;;27.19;51.19;100332.66;5013978;28;20395;-61
2023/06/25 09:31:54;;;;;;;3.45;1.90;;;;;;;27.20;50.73;100332.47;5014042;28;20060;-62
2023/06/25 09:34:24;;;;;;;3.83;2.15;;;;;;;27.20;51.12;100324.25;5013608;28;20054;-62
2023/06/25 09:36:52;;;;;;;4.43;1.83;;;;;;;27.19;50.87;100325.31;5013297;28;20046;-60
2023/06/25 09:39:20;;;;;;;2.90;1.92;;;;;;;27.18;50.58;100320.88;5013726;28;20124;-62
2023/06/25 09:41:49;;;;;;;3.85;2.28;;;;;;;27.19;50.45;100317.09;5013811;28;20098;-62
2023/06/25 09:44:19;;;;;;;4.45;2.40;;;;;;;27.19;50.40;100314.34;5013367;28;20137;-62
2023/06/25 09:46:52;;;;;;;4.43;2.63;;;;;;;27.19;50.31;100319.81;5013089;28;20042;-62
2023/06/25 09:49:21;;;;;;;4.30;2.50;;;;;;;27.20;49.88;100318.78;5013340;28;20057;-62
2023/06/25 09:51:53;;;;;;;3.88;2.30;;;;;;;27.21;50.03;100309.50;5013170;28;20053;-62
2023/06/25 09:54:23;;;;;;;5.53;2.30;;;;;;;27.23;50.38;100312.94;5013265;28;20038;-62
2023/06/25 09:56:52;;;;;;;3.90;2.40;;;;;;;27.24;50.36;100311.03;5013079;28;20052;-61
2023/06/25 09:59:24;;;;;;;5.03;2.50;;;;;;;27.24;49.89;100303.66;5013327;28;20049;-61
2023/06/25 10:01:54;;;;;;;4.30;2.37;;;;;;;27.26;49.64;100301.56;5013385;28;20049;-63
2023/06/25 10:04:22;;;;;;;4.32;2.60;;;;;;;27.27;50.09;100303.25;5013093;28;20487;-62
2023/06/25 10:06:51;;;;;;;4.93;2.50;;;;;;;27.30;50.10;100302.84;5012867;28;20447;-63
2023/06/25 10:09:19;;;;;;;4.82;2.30;;;;;;;27.30;49.68;100291.88;5012859;28;20049;-63
2023/06/25 10:11:51;;;;;;;4.40;2.40;;;;;;;27.32;50.14;100292.56;5012929;28;20050;-61
2023/06/25 10:14:21;;;;;;;5.80;2.08;;;;;;;27.32;49.76;100292.56;5012667;28;20562;-63
2023/06/25 10:16:55;;;;;;;4.25;2.38;;;;;;;27.35;49.91;100300.38;5012621;28;20503;-63
2023/06/25 10:19:26;;;;;;;5.25;2.42;;;;;;;27.37;49.38;100298.25;5013200;28;20092;-63
2023/06/25 10:22:06;;;;;;;4.15;2.40;;;;;;;27.39;49.75;100296.16;5012914;28;20046;-63
2023/06/25 10:24:40;;;;;;;3.38;2.28;;;;;;;27.41;49.47;100298.72;5012579;28;20053;-61
2023/06/25 10:27:19;;;;;;;4.83;2.40;;;;;;;27.44;49.53;100302.94;5012538;28;20410;-64
2023/06/25 10:29:47;;;;;;;4.10;2.20;;;;;;;27.46;49.18;100295.38;5012705;28;20060;-63
2023/06/25 10:32:20;;;;;;;3.90;2.17;;;;;;;27.47;49.49;100286.09;5012778;28;20381;-62
2023/06/25 10:34:55;;;;;;;3.38;2.20;;;;;;;27.49;49.46;100289.47;5012486;28;20068;-63
2023/06/25 10:37:29;;;;;;;4.25;2.08;;;;;;;27.49;49.50;100287.59;5012344;28;20469;-64
2023/06/25 10:40:08;;;;;;;3.60;2.22;;;;;;;27.48;49.16;100294.13;5012659;28;20050;-63
2023/06/25 10:42:37;;;;;;;3.97;2.40;;;;;;;27.47;48.26;100286.09;5012437;28;20046;-64
2023/06/25 10:45:06;;;;;;;4.18;2.05;;;;;;;27.47;48.63;100297.91;5012513;28;20128;-64
2023/06/25 10:47:36;;;;;;;3.92;2.22;;;;;;;27.45;48.67;100293.69;5012664;28;20096;-63
2023/06/25 10:50:05;;;;;;;3.60;2.30;;;;;;;27.45;48.90;100293.69;5012254;28;20052;-64
2023/06/25 10:52:35;;;;;;;4.22;2.47;;;;;;;27.46;48.85;100295.38;5011970;28;20062;-63
2023/06/25 10:55:03;;;;;;;3.88;2.35;;;;;;;27.47;48.24;100291.59;5012222;28;20067;-64
2023/06/25 10:57:32;;;;;;;3.95;2.08;;;;;;;27.46;48.03;100289.91;5012201;28;20083;-64
2023/06/25 11:00:00;;;;;;;4.38;2.25;;;;;;;27.46;47.74;100279.78;5012101;28;20088;-63
2023/06/25 11:02:28;;;;;;;3.70;2.40;;;;;;;27.49;48.05;100289.47;5012200;28;20045;-64
2023/06/25 11:04:59;;;;;;;3.58;2.20;;;;;;;27.50;47.81;100285.69;5011922;28;20450;-64
2023/06/25 11:07:27;;;;;;;4.22;2.70;;;;;;;27.49;48.31;100282.09;5012159;28;20046;-64
2023/06/25 11:09:56;;;;;;;5.40;2.47;;;;;;;27.49;48.35;100273.03;5012082;28;20045;-64
2023/06/25 11:12:24;;;;;;;3.72;2.25;;;;;;;27.49;47.93;100270.31;5012151;28;20057;-66
2023/06/25 11:14:52;;;;;;;3.08;2.20;;;;;;;27.49;47.26;100267.56;5011550;28;20107;-64
2023/06/25 11:17:20;;;;;;;3.50;2.03;;;;;;;27.50;47.00;100263.78;5011953;28;20046;-64
2023/06/25 11:19:51;;;;;;;4.10;2.50;;;;;;;27.50;46.50;100263.78;5011823;28;20469;-64
2023/06/25 11:22:21;;;;;;;3.83;2.30;;;;;;;27.48;46.96;100261.25;5011649;28;20578;-64
2023/06/25 11:24:50;;;;;;;4.40;2.30;;;;;;;27.49;47.21;100251.13;5010958;28;20067;-64
2023/06/25 11:27:25;;;;;;;3.28;2.20;;;;;;;27.52;46.88;100257.06;5011857;28;20049;-64
2023/06/25 11:29:54;;;;;;;3.60;2.33;;;;;;;27.54;46.81;100259.59;5011648;28;20057;-63
2023/06/25 11:32:24;;;;;;;3.55;2.10;;;;;;;27.53;46.87;100257.91;5011580;28;20132;-63